createdAt,value
2022-08-20T00:01:29.611Z,100104.36
2022-08-20T00:03:59.809Z,100100.07
2022-08-20T00:06:31.634Z,100099.34
2022-08-20T00:09:00.610Z,100096.60
2022-08-20T00:11:33.865Z,100100.34
2022-08-20T00:14:06.114Z,100098.10
2022-08-20T00:16:38.965Z,100100.63
2022-08-20T00:19:10.162Z,100099.39
2022-08-20T00:21:38.900Z,100094.34
2022-08-20T00:24:08.740Z,100094.58
2022-08-20T00:26:37.938Z,100094.52
2022-08-20T00:29:22.521Z,100092.23
2022-08-20T00:31:51.677Z,100089.59
2022-08-20T00:34:20.378Z,100085.79
2022-08-20T00:36:49.280Z,100086.40
2022-08-20T00:39:18.057Z,100065.58
2022-08-20T00:41:46.839Z,100090.52
2022-08-20T00:44:19.627Z,100088.71
2022-08-20T00:46:49.141Z,100079.80
2022-08-20T00:49:33.351Z,100078.95
2022-08-20T00:52:19.986Z,100078.22
2022-08-20T00:55:01.218Z,100080.67
2022-08-20T00:58:03.964Z,100079.02
2022-08-20T01:00:39.633Z,100073.41
2022-08-20T01:03:11.657Z,100070.61
2022-08-20T01:05:45.087Z,100072.84
2022-08-20T01:08:17.562Z,100069.38
2022-08-20T01:10:49.945Z,100067.45
2022-08-20T01:13:24.586Z,100063.33
2022-08-20T01:15:56.924Z,100056.80
2022-08-20T01:18:29.218Z,100051.84
2022-08-20T01:21:05.359Z,100058.31
2022-08-20T01:24:08.987Z,100055.72
2022-08-20T01:26:47.736Z,100058.15
2022-08-20T01:29:23.645Z,100039.11
2022-08-20T01:31:53.703Z,100054.77
2022-08-20T01:34:23.502Z,100048.34
2022-08-20T01:36:55.141Z,100047.67
2022-08-20T01:39:30.096Z,100052.15
2022-08-20T01:42:30.653Z,100054.93
2022-08-20T01:44:59.374Z,100055.88
2022-08-20T01:47:38.299Z,100052.39
2022-08-20T01:50:24.297Z,100052.45
2022-08-20T01:52:59.532Z,100055.79
2022-08-20T01:55:28.507Z,100059.58
2022-08-20T01:57:58.826Z,100055.89
2022-08-20T02:00:28.492Z,100050.25
2022-08-20T02:02:57.407Z,100052.11
2022-08-20T02:05:30.566Z,100051.10
2022-08-20T02:08:00.428Z,100052.83
2022-08-20T02:10:31.948Z,100056.08
2022-08-20T02:13:05.562Z,100062.48
2022-08-20T02:15:37.318Z,100064.20
2022-08-20T02:18:16.533Z,100059.85
2022-08-20T02:20:46.272Z,100060.14
2022-08-20T02:23:16.527Z,100059.07
2022-08-20T02:25:47.904Z,100063.39
2022-08-20T02:28:21.073Z,100063.35
2022-08-20T02:30:55.440Z,100061.52
2022-08-20T02:33:25.292Z,100023.16
2022-08-20T02:35:56.716Z,100049.82
2022-08-20T02:38:25.743Z,100053.13
2022-08-20T02:40:54.665Z,100047.38
2022-08-20T02:43:23.503Z,100047.04
2022-08-20T02:45:52.332Z,100045.72
2022-08-20T02:48:23.434Z,100047.35
2022-08-20T02:51:01.991Z,100055.11
2022-08-20T02:53:35.391Z,100060.90
2022-08-20T02:56:06.398Z,100062.55
2022-08-20T02:58:41.691Z,100066.17
2022-08-20T03:01:15.547Z,100070.62
2022-08-20T03:03:46.789Z,100077.32
2022-08-20T03:06:16.476Z,100079.02
2022-08-20T03:08:45.847Z,100050.98
2022-08-20T03:11:14.658Z,100084.50
2022-08-20T03:13:44.438Z,100086.12
2022-08-20T03:16:15.412Z,100084.31
2022-08-20T03:18:47.701Z,100079.41
2022-08-20T03:21:20.952Z,100078.51
2022-08-20T03:23:51.739Z,100074.69
2022-08-20T03:26:20.689Z,100077.38
2022-08-20T03:28:49.738Z,100073.58
2022-08-20T03:31:18.528Z,100066.37
2022-08-20T03:33:53.016Z,100066.91
2022-08-20T03:36:29.093Z,100071.43
2022-08-20T03:39:02.818Z,100069.92
2022-08-20T03:41:33.219Z,100020.60
2022-08-20T03:44:02.060Z,100075.00
2022-08-20T03:46:30.876Z,100084.94
2022-08-20T03:49:00.618Z,100088.60
2022-08-20T03:51:56.178Z,100089.59
2022-08-20T03:54:22.674Z,100082.50
2022-08-20T03:56:51.591Z,100083.70
2022-08-20T03:59:34.803Z,100082.26
2022-08-20T04:02:17.362Z,100058.67
2022-08-20T04:04:48.020Z,100079.30
2022-08-20T04:07:37.355Z,100078.91
2022-08-20T04:10:13.486Z,100077.87
2022-08-20T04:12:51.366Z,100077.07
2022-08-20T04:15:23.609Z,100077.26
2022-08-20T04:17:53.816Z,100084.28
2022-08-20T04:20:26.286Z,100087.38
2022-08-20T04:22:58.536Z,100091.83
2022-08-20T04:25:36.084Z,100070.24
2022-08-20T04:28:08.550Z,100089.83
2022-08-20T04:30:40.603Z,100093.03
2022-08-20T04:33:17.056Z,100090.71
2022-08-20T04:35:51.488Z,100090.95
2022-08-20T04:38:23.133Z,100097.09
2022-08-20T04:40:58.450Z,100102.89
2022-08-20T04:43:39.590Z,100107.98
2022-08-20T04:46:16.703Z,100112.94
2022-08-20T04:48:50.582Z,100114.11
2022-08-20T04:51:27.003Z,100115.91
2022-08-20T04:54:07.667Z,100113.02
2022-08-20T04:57:00.549Z,100108.70
2022-08-20T04:59:53.883Z,100111.83
2022-08-20T05:02:33.496Z,100091.19
2022-08-20T05:05:18.679Z,100116.00
2022-08-20T05:08:02.042Z,100118.61
2022-08-20T05:10:50.085Z,100115.69
2022-08-20T05:13:29.279Z,100110.48
2022-08-20T05:16:06.851Z,100075.05
2022-08-20T05:18:43.183Z,100106.80
2022-08-20T05:21:16.095Z,100108.77
2022-08-20T05:23:52.226Z,100088.40
2022-08-20T05:26:25.456Z,100112.39
2022-08-20T05:29:14.572Z,100114.10
2022-08-20T05:31:54.397Z,100115.30
2022-08-20T05:34:26.467Z,100115.83
2022-08-20T05:37:14.270Z,100114.62
2022-08-20T05:39:56.759Z,100116.08
2022-08-20T05:45:27.912Z,100116.39
2022-08-20T05:48:19.420Z,100110.71
2022-08-20T05:50:56.740Z,100097.02
2022-08-20T05:53:33.156Z,100082.72
2022-08-20T05:56:21.685Z,100104.58
2022-08-20T05:59:04.988Z,100103.98
2022-08-20T06:01:46.232Z,100083.47
2022-08-20T06:04:37.777Z,100102.56
2022-08-20T06:07:13.194Z,100101.62
2022-08-20T06:09:53.384Z,100098.79
2022-08-20T06:12:26.182Z,100066.88
2022-08-20T06:15:18.615Z,100095.08
2022-08-20T06:17:58.512Z,100083.33
2022-08-20T06:20:30.256Z,100080.88
2022-08-20T06:23:00.919Z,100095.21
2022-08-20T06:25:37.399Z,100094.10
2022-08-20T06:28:07.006Z,100096.29
2022-08-20T06:30:56.452Z,100093.13
2022-08-20T06:34:03.768Z,100085.41
2022-08-20T06:36:42.963Z,100053.75
2022-08-20T06:39:14.889Z,100071.38
2022-08-20T06:42:07.337Z,100064.52
2022-08-20T06:44:50.921Z,100083.67
2022-08-20T06:47:50.404Z,100083.30
2022-08-20T06:50:22.492Z,100084.08
2022-08-20T06:52:57.048Z,100084.54
2022-08-20T06:55:27.542Z,100063.52
2022-08-20T06:58:30.452Z,100085.27
2022-08-20T07:01:30.778Z,100055.70
2022-08-20T07:04:16.130Z,100090.16
2022-08-20T07:06:52.397Z,100088.09
2022-08-20T07:10:38.474Z,100071.99
2022-08-20T07:13:55.983Z,100050.95
2022-08-20T07:16:38.002Z,100077.69
2022-08-20T07:19:24.145Z,100075.11
2022-08-20T07:21:58.475Z,100076.62
2022-08-20T07:24:32.546Z,100076.25
2022-08-20T07:27:35.835Z,100078.13
2022-08-20T07:30:56.841Z,100061.20
2022-08-20T07:33:35.255Z,100045.13
2022-08-20T07:36:08.727Z,100066.89
2022-08-20T07:38:58.096Z,100055.42
2022-08-20T07:42:04.014Z,100071.80
2022-08-20T07:44:47.396Z,100064.16
2022-08-20T07:47:24.599Z,100073.10
2022-08-20T07:50:07.399Z,100070.27
2022-08-20T07:52:49.245Z,100070.38
2022-08-20T07:55:25.595Z,100045.73
2022-08-20T07:57:54.527Z,100053.50
2022-08-20T08:00:27.624Z,100052.01
2022-08-20T08:03:11.117Z,100069.59
2022-08-20T08:05:44.024Z,100065.57
2022-08-20T08:08:20.769Z,100062.28
2022-08-20T08:10:58.351Z,100059.02
2022-08-20T08:13:38.945Z,100056.27
2022-08-20T08:16:09.733Z,100054.02
2022-08-20T08:19:02.181Z,100050.87
2022-08-20T08:21:32.733Z,100040.65
2022-08-20T08:24:02.827Z,100046.86
2022-08-20T08:26:32.857Z,100050.21
2022-08-20T08:29:04.233Z,100047.46
2022-08-20T08:31:37.552Z,100043.39
2022-08-20T08:34:10.308Z,100041.05
2022-08-20T08:36:39.774Z,100040.39
2022-08-20T08:39:08.560Z,100045.60
2022-08-20T08:41:48.232Z,100043.57
2022-08-20T08:44:25.430Z,100045.40
2022-08-20T08:47:25.488Z,100048.73
2022-08-20T08:49:58.823Z,100044.78
2022-08-20T08:55:32.642Z,100039.11
2022-08-20T08:58:04.327Z,100042.03
2022-08-20T09:00:56.612Z,100039.01
2022-08-20T09:03:38.291Z,100042.23
2022-08-20T09:06:07.960Z,100034.94
2022-08-20T09:08:57.248Z,100034.09
2022-08-20T09:11:26.247Z,100027.55
2022-08-20T09:13:58.857Z,100024.16
2022-08-20T09:16:35.413Z,100028.51
2022-08-20T09:19:19.586Z,100025.56
2022-08-20T09:21:53.772Z,100025.70
2022-08-20T09:24:24.466Z,100014.64
2022-08-20T09:26:56.559Z,100020.56
2022-08-20T09:29:29.116Z,100019.63
2022-08-20T09:32:11.493Z,100021.89
2022-08-20T09:34:59.614Z,100006.75
2022-08-20T09:37:37.333Z,99997.51
2022-08-20T09:40:09.230Z,100023.20
2022-08-20T09:42:41.531Z,100018.23
2022-08-20T09:45:12.860Z,100017.35
2022-08-20T09:47:54.747Z,100008.11
2022-08-20T09:50:35.671Z,100006.02
2022-08-20T09:53:06.582Z,100008.83
2022-08-20T09:55:52.774Z,100003.02
2022-08-20T09:58:58.961Z,100003.55
2022-08-20T10:01:35.078Z,100000.98
2022-08-20T10:04:15.742Z,99996.87
2022-08-20T10:07:12.357Z,99986.74
2022-08-20T10:09:59.575Z,99992.70
2022-08-20T10:12:54.635Z,99993.60
2022-08-20T10:16:21.503Z,99998.98
2022-08-20T10:23:22.125Z,99995.20
2022-08-20T10:26:26.042Z,99986.58
2022-08-20T10:31:54.043Z,99973.67
2022-08-20T10:34:26.691Z,99972.05
2022-08-20T10:36:57.593Z,99967.91
2022-08-20T10:42:50.848Z,99957.79
2022-08-20T10:45:32.259Z,99955.48
2022-08-20T10:48:12.081Z,99964.00
2022-08-20T10:50:48.155Z,99954.84
2022-08-20T10:53:21.506Z,99962.21
2022-08-20T10:55:58.304Z,99958.63
2022-08-20T10:58:35.640Z,99947.69
2022-08-20T11:01:31.324Z,99938.15
2022-08-20T11:04:12.300Z,99946.34
2022-08-20T11:06:44.331Z,99944.43
2022-08-20T11:09:31.424Z,99919.61
2022-08-20T11:12:03.142Z,99936.52
2022-08-20T11:14:52.696Z,99939.00
2022-08-20T11:17:47.175Z,99920.29
2022-08-20T11:20:25.437Z,99936.98
2022-08-20T11:23:17.101Z,99925.25
2022-08-20T11:26:00.438Z,99927.41
2022-08-20T11:28:42.659Z,99929.07
2022-08-20T11:31:13.911Z,99920.15
2022-08-20T11:33:46.360Z,99921.27
2022-08-20T11:36:47.846Z,99921.45
2022-08-20T11:39:24.353Z,99914.50
2022-08-20T11:42:03.394Z,99909.15
2022-08-20T11:44:57.536Z,99894.75
2022-08-20T11:47:40.642Z,99912.46
2022-08-20T11:50:38.060Z,99911.46
2022-08-20T11:53:41.704Z,99902.79
2022-08-20T11:56:24.382Z,99879.94
2022-08-20T11:59:09.453Z,99907.08
2022-08-20T12:02:12.088Z,99903.44
2022-08-20T12:04:44.580Z,99909.04
2022-08-20T12:07:19.362Z,99895.77
2022-08-20T12:09:52.858Z,99888.86
2022-08-20T12:12:27.648Z,99901.48
2022-08-20T12:15:05.624Z,99899.27
2022-08-20T12:17:51.106Z,99894.33
2022-08-20T12:20:38.882Z,99897.57
2022-08-20T12:23:15.458Z,99895.86
2022-08-20T12:25:51.884Z,99877.05
2022-08-20T12:28:52.293Z,99879.99
2022-08-20T12:31:39.608Z,99881.54
2022-08-20T12:34:20.663Z,99883.92
2022-08-20T12:37:00.608Z,99882.27
2022-08-20T12:39:51.617Z,99881.64
2022-08-20T12:42:23.746Z,99870.33
2022-08-20T12:44:58.202Z,99869.94
2022-08-20T12:47:41.205Z,99883.70
2022-08-20T12:50:31.290Z,99884.64
2022-08-20T12:53:10.618Z,99872.42
2022-08-20T12:55:43.272Z,99885.25
2022-08-20T12:58:20.698Z,99882.72
2022-08-20T13:00:54.801Z,99876.16
2022-08-20T13:03:24.803Z,99871.91
2022-08-20T13:05:56.829Z,99884.50
2022-08-20T13:08:34.455Z,99887.29
2022-08-20T13:11:10.151Z,99890.55
2022-08-20T13:13:43.848Z,99890.99
2022-08-20T13:16:26.167Z,99889.05
2022-08-20T13:18:58.007Z,99884.22
2022-08-20T13:21:45.170Z,99881.05
2022-08-20T13:24:37.849Z,99877.66
2022-08-20T13:27:44.671Z,99876.78
2022-08-20T13:30:51.139Z,99874.19
2022-08-20T13:33:31.948Z,99854.52
2022-08-20T13:36:07.371Z,99854.27
2022-08-20T13:38:57.032Z,99853.83
2022-08-20T13:41:26.066Z,99852.20
2022-08-20T13:44:09.005Z,99834.24
2022-08-20T13:46:45.042Z,99830.23
2022-08-20T13:49:20.604Z,99853.34
2022-08-20T13:51:55.526Z,99851.59
2022-08-20T13:55:00.208Z,99857.19
2022-08-20T13:58:03.649Z,99849.75
2022-08-20T14:04:52.530Z,99851.89
2022-08-20T14:08:25.085Z,99854.30
2022-08-20T14:11:04.961Z,99853.30
2022-08-20T14:13:50.553Z,99848.91
2022-08-20T14:16:33.299Z,99833.61
2022-08-20T14:19:19.841Z,99828.75
2022-08-20T14:22:04.142Z,99859.85
2022-08-20T14:24:53.605Z,99856.53
2022-08-20T14:27:50.922Z,99845.14
2022-08-20T14:34:03.907Z,99849.07
2022-08-20T14:37:00.987Z,99848.48
2022-08-20T14:39:40.259Z,99833.47
2022-08-20T14:42:14.220Z,99846.84
2022-08-20T14:44:54.615Z,99850.83
2022-08-20T14:47:44.072Z,99844.38
2022-08-20T14:50:45.106Z,99852.19
2022-08-20T14:56:30.097Z,99843.86
2022-08-20T14:59:20.483Z,99843.86
2022-08-20T15:02:31.185Z,99844.79
2022-08-20T15:05:39.677Z,99842.45
2022-08-20T15:08:22.890Z,99814.34
2022-08-20T15:11:42.909Z,99832.41
2022-08-20T15:15:09.651Z,99841.34
2022-08-20T15:18:29.793Z,99842.45
2022-08-20T15:22:12.501Z,99841.24
2022-08-20T15:25:20.776Z,99820.86
2022-08-20T15:28:16.618Z,99818.48
2022-08-20T15:31:08.232Z,99831.63
2022-08-20T15:34:27.471Z,99845.46
2022-08-20T15:37:50.496Z,99836.84
2022-08-20T15:48:51.339Z,99856.42
2022-08-20T15:52:25.459Z,99848.34
2022-08-20T15:55:07.173Z,99863.77
2022-08-20T15:58:02.774Z,99865.95
2022-08-20T16:12:54.908Z,99886.38
2022-08-20T16:16:32.439Z,99886.64
2022-08-20T16:19:27.951Z,99888.23
2022-08-20T16:22:37.163Z,99877.25
2022-08-20T16:25:55.627Z,99845.30
2022-08-20T16:29:25.424Z,99874.00
2022-08-20T16:32:31.411Z,99893.20
2022-08-20T16:40:09.290Z,99874.29
2022-08-20T16:42:46.247Z,99896.33
2022-08-20T16:46:40.575Z,99898.56
2022-08-20T16:53:35.949Z,99912.84
2022-08-20T16:56:34.754Z,99909.75
2022-08-20T16:59:45.574Z,99902.61
2022-08-20T17:02:36.237Z,99900.77
2022-08-20T17:05:17.360Z,99908.12
2022-08-20T17:12:51.419Z,99915.18
2022-08-20T17:16:56.211Z,99911.02
2022-08-20T17:35:43.746Z,99922.33
2022-08-20T17:43:43.517Z,99941.71
2022-08-20T17:47:13.230Z,99934.33
2022-08-20T17:51:07.899Z,99936.60
2022-08-20T17:54:37.442Z,99954.17
2022-08-20T17:58:14.987Z,99958.50
2022-08-20T18:01:31.936Z,99950.95
2022-08-20T18:08:30.613Z,99951.69
2022-08-20T18:12:44.628Z,99947.67
2022-08-20T18:16:23.743Z,99953.96
2022-08-20T18:20:46.940Z,99955.15
2022-08-20T18:24:29.777Z,99958.19
2022-08-20T18:27:38.557Z,99954.60
2022-08-20T18:31:22.030Z,99965.92
2022-08-20T18:34:28.959Z,99977.03
2022-08-20T18:37:39.417Z,99979.11
2022-08-20T18:40:45.287Z,99980.48
2022-08-20T18:47:54.406Z,99980.70
2022-08-20T18:50:52.867Z,99964.36
2022-08-20T19:01:34.470Z,99979.34
2022-08-20T19:05:02.375Z,99996.33
2022-08-20T19:12:24.344Z,99998.77
2022-08-20T19:16:18.073Z,99983.34
2022-08-20T19:22:52.728Z,99997.70
2022-08-20T19:33:43.824Z,99985.43
2022-08-20T19:36:31.771Z,99991.48
2022-08-20T19:39:51.584Z,99989.62
2022-08-20T19:46:51.442Z,99989.41
2022-08-20T19:53:56.819Z,99988.27
2022-08-20T19:56:57.024Z,99965.07
2022-08-20T20:00:46.605Z,99954.49
2022-08-20T20:04:55.474Z,99984.32
2022-08-20T20:11:18.391Z,99973.59
2022-08-20T20:14:39.054Z,99977.95
2022-08-20T20:17:56.583Z,99956.27
2022-08-20T20:21:22.218Z,99971.22
2022-08-20T20:24:02.399Z,99970.92
2022-08-20T20:27:44.470Z,99978.70
2022-08-20T20:31:09.224Z,99979.55
2022-08-20T20:37:59.690Z,99970.22
2022-08-20T20:41:49.212Z,99977.98
2022-08-20T20:45:04.156Z,99957.94
2022-08-20T20:47:56.877Z,99958.04
2022-08-20T20:59:07.304Z,99974.83
2022-08-20T21:02:13.027Z,99965.19
2022-08-20T21:05:39.529Z,99972.23
2022-08-20T21:08:37.521Z,99967.23
2022-08-20T21:11:57.627Z,99956.61
2022-08-20T21:17:29.376Z,99956.86
2022-08-20T21:19:49.560Z,99959.89
2022-08-20T21:23:10.826Z,99937.36
2022-08-20T21:26:31.494Z,99938.69
2022-08-20T21:33:13.232Z,99962.16
2022-08-20T21:36:14.594Z,99959.52
2022-08-20T21:38:58.831Z,99929.17
2022-08-20T21:42:32.530Z,99955.77
2022-08-20T21:45:35.423Z,99954.55
2022-08-20T21:48:29.023Z,99949.56
2022-08-20T21:51:16.516Z,99945.16
2022-08-20T21:54:02.067Z,99914.98
2022-08-20T21:56:45.413Z,99935.86
2022-08-20T21:59:29.332Z,99935.84
2022-08-20T22:02:02.879Z,99904.95
2022-08-20T22:04:50.952Z,99950.30
2022-08-20T22:07:41.338Z,99940.80
2022-08-20T22:10:19.820Z,99913.71
2022-08-20T22:13:01.363Z,99917.85
2022-08-20T22:15:59.209Z,99919.00
2022-08-20T22:18:48.317Z,99925.66
2022-08-20T22:21:39.825Z,99925.15
2022-08-20T22:24:26.365Z,99922.70
2022-08-20T22:30:12.349Z,99924.41
2022-08-20T22:36:05.922Z,99914.54
2022-08-20T22:39:14.590Z,99881.92
2022-08-20T22:41:58.721Z,99926.31
2022-08-20T22:44:39.946Z,99926.64
2022-08-20T22:47:41.186Z,99897.97
2022-08-20T22:50:42.091Z,99917.70
2022-08-20T22:53:34.312Z,99913.67
2022-08-20T22:56:21.695Z,99928.71
2022-08-20T22:59:18.443Z,99932.52
2022-08-20T23:02:26.118Z,99922.77
2022-08-20T23:08:34.895Z,99912.35
2022-08-20T23:14:48.218Z,99922.61
2022-08-20T23:17:39.336Z,99891.14
2022-08-20T23:20:44.665Z,99912.38
2022-08-20T23:23:42.596Z,99911.96
2022-08-20T23:29:39.124Z,99911.89
2022-08-20T23:32:49.230Z,99906.61
2022-08-20T23:35:35.775Z,99880.12
2022-08-20T23:38:22.484Z,99904.05
2022-08-20T23:41:19.362Z,99909.77
2022-08-20T23:44:05.708Z,99907.09
2022-08-20T23:47:07.630Z,99887.16
2022-08-20T23:50:04.261Z,99897.20
